createdAt,value
2017-07-11T00:01:10.310Z,35.20
2017-07-11T00:03:37.772Z,36.25
2017-07-11T00:06:05.235Z,36.20
2017-07-11T00:08:32.787Z,35.47
2017-07-11T00:11:00.339Z,37.22
2017-07-11T00:13:27.813Z,35.65
2017-07-11T00:15:55.277Z,35.08
2017-07-11T00:18:22.712Z,41.33
2017-07-11T00:20:50.165Z,40.97
2017-07-11T00:23:17.627Z,38.20
2017-07-11T00:25:45.073Z,38.63
2017-07-11T00:28:12.534Z,37.22
2017-07-11T00:30:40.010Z,37.30
2017-07-11T00:33:07.439Z,36.90
2017-07-11T00:35:34.875Z,40.05
2017-07-11T00:38:02.379Z,37.42
2017-07-11T00:40:29.927Z,37.90
2017-07-11T00:42:57.395Z,34.88
2017-07-11T00:45:24.835Z,35.00
2017-07-11T00:47:52.291Z,34.30
2017-07-11T00:50:19.847Z,32.40
2017-07-11T00:52:47.306Z,31.77
2017-07-11T00:55:14.835Z,31.58
2017-07-11T00:57:42.312Z,30.80
2017-07-11T01:00:09.903Z,29.05
2017-07-11T01:02:37.424Z,30.17
2017-07-11T01:05:04.914Z,26.90
2017-07-11T01:07:33.120Z,26.77
2017-07-11T01:10:00.646Z,26.33
2017-07-11T01:12:28.856Z,27.67
2017-07-11T01:14:56.301Z,27.20
2017-07-11T01:17:23.807Z,23.75
2017-07-11T01:19:51.272Z,26.80
2017-07-11T01:22:18.846Z,25.05
2017-07-11T01:24:46.379Z,25.03
2017-07-11T01:27:13.828Z,25.80
2017-07-11T01:29:41.275Z,26.77
2017-07-11T01:32:08.771Z,26.80
2017-07-11T01:34:36.228Z,27.00
2017-07-11T01:37:03.766Z,26.77
2017-07-11T01:39:31.211Z,29.58
2017-07-11T01:41:58.668Z,28.67
2017-07-11T01:44:26.135Z,27.70
2017-07-11T01:46:53.597Z,27.05
2017-07-11T01:49:21.040Z,26.90
2017-07-11T01:51:48.480Z,27.60
2017-07-11T01:54:15.977Z,28.48
2017-07-11T01:56:43.418Z,27.87
2017-07-11T01:59:10.873Z,27.70
2017-07-11T02:01:38.420Z,28.90
2017-07-11T02:04:05.869Z,27.58
2017-07-11T02:06:33.351Z,27.05
2017-07-11T02:09:00.898Z,27.30
2017-07-11T02:11:28.348Z,27.33
2017-07-11T02:13:55.806Z,28.20
2017-07-11T02:16:23.252Z,29.77
2017-07-11T02:18:50.715Z,29.17
2017-07-11T02:21:18.203Z,29.27
2017-07-11T02:23:45.648Z,28.70
2017-07-11T02:26:13.888Z,28.60
2017-07-11T02:28:41.351Z,28.87
2017-07-11T02:31:08.830Z,32.47
2017-07-11T02:33:36.406Z,31.05
2017-07-11T02:36:03.942Z,33.85
2017-07-11T02:38:31.404Z,33.95
2017-07-11T02:40:58.866Z,32.60
2017-07-11T02:43:26.418Z,34.55
2017-07-11T02:45:53.847Z,35.33
2017-07-11T02:48:21.343Z,32.63
2017-07-11T02:50:48.783Z,35.10
2017-07-11T02:53:16.226Z,32.22
2017-07-11T02:55:43.664Z,35.47
2017-07-11T02:58:11.103Z,35.80
2017-07-11T03:00:38.627Z,35.15
2017-07-11T03:03:06.060Z,34.25
2017-07-11T03:05:33.506Z,33.53
2017-07-11T03:08:00.951Z,37.85
2017-07-11T03:10:28.403Z,34.05
2017-07-11T03:12:55.911Z,34.63
2017-07-11T03:15:23.439Z,36.05
2017-07-11T03:17:50.904Z,36.75
2017-07-11T03:20:18.452Z,35.27
2017-07-11T03:22:45.898Z,33.70
2017-07-11T03:25:13.345Z,33.95
2017-07-11T03:27:40.904Z,33.90
2017-07-11T03:30:08.334Z,33.00
2017-07-11T03:32:35.838Z,32.13
2017-07-11T03:35:03.275Z,31.98
2017-07-11T03:37:30.757Z,33.70
2017-07-11T03:39:58.220Z,31.58
2017-07-11T03:42:25.764Z,32.80
2017-07-11T03:44:53.220Z,31.30
2017-07-11T03:47:20.688Z,29.98
2017-07-11T03:49:48.127Z,31.50
2017-07-11T03:52:15.603Z,31.05
2017-07-11T03:54:43.045Z,30.42
2017-07-11T03:57:10.483Z,30.80
2017-07-11T03:59:37.953Z,29.67
2017-07-11T04:02:05.424Z,31.02
2017-07-11T04:04:32.971Z,32.00
2017-07-11T04:07:00.422Z,31.40
2017-07-11T04:09:27.893Z,31.90
2017-07-11T04:11:55.329Z,29.65
2017-07-11T04:14:22.847Z,29.40
2017-07-11T04:16:51.081Z,30.02
2017-07-11T04:19:18.541Z,29.73
2017-07-11T04:21:46.012Z,28.38
2017-07-11T04:24:13.467Z,32.75
2017-07-11T04:26:40.998Z,29.85
2017-07-11T04:29:08.564Z,30.05
2017-07-11T04:31:36.045Z,30.12
2017-07-11T04:34:03.655Z,29.10
2017-07-11T04:36:31.108Z,31.40
2017-07-11T04:38:58.595Z,32.45
2017-07-11T04:41:26.039Z,30.45
2017-07-11T04:43:53.484Z,33.63
2017-07-11T04:46:21.039Z,34.73
2017-07-11T04:48:48.527Z,34.35
2017-07-11T04:51:16.060Z,34.50
2017-07-11T04:53:43.526Z,34.10
2017-07-11T04:56:10.983Z,32.90
2017-07-11T04:58:38.626Z,32.13
2017-07-11T05:01:06.085Z,33.97
2017-07-11T05:03:33.558Z,33.28
2017-07-11T05:06:01.023Z,33.88
2017-07-11T05:08:28.459Z,32.17
2017-07-11T05:10:56.060Z,36.13
2017-07-11T05:13:23.503Z,34.57
2017-07-11T05:15:50.991Z,36.92
2017-07-11T05:18:19.245Z,34.65
2017-07-11T05:20:46.679Z,37.30
2017-07-11T05:23:14.122Z,35.90
2017-07-11T05:25:41.695Z,33.38
2017-07-11T05:28:09.187Z,33.08
2017-07-11T05:30:37.451Z,32.40
2017-07-11T05:33:04.892Z,32.22
2017-07-11T05:35:32.470Z,31.30
2017-07-11T05:38:00.725Z,33.05
2017-07-11T05:40:28.261Z,32.53
2017-07-11T05:42:55.714Z,34.50
2017-07-11T05:45:23.197Z,33.70
2017-07-11T05:47:50.639Z,35.35
2017-07-11T05:50:18.159Z,34.88
2017-07-11T05:52:45.650Z,32.60
2017-07-11T05:55:13.108Z,33.92
2017-07-11T05:57:41.500Z,33.65
2017-07-11T06:00:08.952Z,36.38
2017-07-11T06:02:36.443Z,36.58
2017-07-11T06:05:04.671Z,35.80
2017-07-11T06:07:32.211Z,34.95
2017-07-11T06:09:59.637Z,42.47
2017-07-11T06:12:27.859Z,36.47
2017-07-11T06:14:55.324Z,38.95
2017-07-11T06:17:22.779Z,34.97
2017-07-11T06:19:50.283Z,36.85
2017-07-11T06:22:17.871Z,35.83
2017-07-11T06:24:45.380Z,36.90
2017-07-11T06:27:12.917Z,35.08
2017-07-11T06:29:40.358Z,36.80
2017-07-11T06:32:07.902Z,39.83
2017-07-11T06:34:35.349Z,36.45
2017-07-11T06:37:02.896Z,38.25
2017-07-11T06:39:30.391Z,40.10
2017-07-11T06:41:57.849Z,36.58
2017-07-11T06:44:25.387Z,34.42
2017-07-11T06:46:52.833Z,39.13
2017-07-11T06:49:20.368Z,37.92
2017-07-11T06:51:48.592Z,36.67
2017-07-11T06:54:16.038Z,36.95
2017-07-11T06:56:43.531Z,39.78
2017-07-11T06:59:11.033Z,36.50
2017-07-11T07:01:38.532Z,34.88
2017-07-11T07:04:05.976Z,31.87
2017-07-11T07:06:33.518Z,34.80
2017-07-11T07:09:00.959Z,35.17
2017-07-11T07:11:28.593Z,33.97
2017-07-11T07:13:56.017Z,34.63
2017-07-11T07:16:23.597Z,34.38
2017-07-11T07:18:51.863Z,34.28
2017-07-11T07:21:19.423Z,34.30
2017-07-11T07:23:46.844Z,33.05
2017-07-11T07:26:14.396Z,32.13
2017-07-11T07:28:41.832Z,29.00
2017-07-11T07:31:09.350Z,32.33
2017-07-11T07:33:36.907Z,30.90
2017-07-11T07:36:04.427Z,30.62
2017-07-11T07:38:31.899Z,30.55
2017-07-11T07:40:59.411Z,28.87
2017-07-11T07:43:26.914Z,28.52
2017-07-11T07:45:54.411Z,27.87
2017-07-11T07:48:22.676Z,26.80
2017-07-11T07:50:50.184Z,26.95
2017-07-11T07:53:17.700Z,25.55
2017-07-11T07:55:45.957Z,25.45
2017-07-11T07:58:13.500Z,27.30
2017-07-11T08:00:40.943Z,26.20
2017-07-11T08:03:08.844Z,28.20
2017-07-11T08:05:36.378Z,25.27
2017-07-11T08:08:03.934Z,22.75
2017-07-11T08:10:31.431Z,24.70
2017-07-11T08:12:59.749Z,24.90
2017-07-11T08:15:27.188Z,25.50
2017-07-11T08:17:54.818Z,24.92
2017-07-11T08:20:22.346Z,24.20
2017-07-11T08:22:49.807Z,22.13
2017-07-11T08:25:17.256Z,20.75
2017-07-11T08:27:44.794Z,22.40
2017-07-11T08:30:12.244Z,21.50
2017-07-11T08:32:39.702Z,23.35
2017-07-11T08:35:07.234Z,22.17
2017-07-11T08:37:35.484Z,22.30
2017-07-11T08:40:02.993Z,21.65
2017-07-11T08:42:30.492Z,21.95
2017-07-11T08:44:57.960Z,23.50
2017-07-11T08:47:25.505Z,22.52
2017-07-11T08:49:53.047Z,23.65
2017-07-11T08:52:20.491Z,24.37
2017-07-11T08:54:47.999Z,25.00
2017-07-11T08:57:16.215Z,24.67
2017-07-11T08:59:43.775Z,26.10
2017-07-11T09:02:11.331Z,25.92
2017-07-11T09:04:38.762Z,24.98
2017-07-11T09:07:06.268Z,25.35
2017-07-11T09:09:33.744Z,26.98
2017-07-11T09:12:01.279Z,26.30
2017-07-11T09:14:28.732Z,26.52
2017-07-11T09:16:56.183Z,27.17
2017-07-11T09:19:23.661Z,29.27
2017-07-11T09:21:51.145Z,28.92
2017-07-11T09:24:19.372Z,27.60
2017-07-11T09:26:46.815Z,28.50
2017-07-11T09:29:14.287Z,26.50
2017-07-11T09:31:41.721Z,26.67
2017-07-11T09:34:09.161Z,28.83
2017-07-11T09:36:36.640Z,27.80
2017-07-11T09:39:04.111Z,26.03
2017-07-11T09:41:31.570Z,25.65
2017-07-11T09:43:59.018Z,25.20
2017-07-11T09:46:26.511Z,24.48
2017-07-11T09:48:54.758Z,26.60
2017-07-11T09:51:22.227Z,24.25
2017-07-11T09:53:49.792Z,27.67
2017-07-11T09:56:17.227Z,28.60
2017-07-11T09:58:44.693Z,28.97
2017-07-11T10:01:12.243Z,28.73
2017-07-11T10:03:39.716Z,27.20
2017-07-11T10:06:07.160Z,26.48
2017-07-11T10:08:34.614Z,26.50
2017-07-11T10:11:02.068Z,25.45
2017-07-11T10:13:29.526Z,26.15
2017-07-11T10:15:56.983Z,25.52
2017-07-11T10:18:24.521Z,25.20
2017-07-11T10:20:51.994Z,25.75
2017-07-11T10:23:19.431Z,23.50
2017-07-11T10:25:46.943Z,23.60
2017-07-11T10:28:14.550Z,20.92
2017-07-11T10:30:42.029Z,21.70
2017-07-11T10:33:09.512Z,21.58
2017-07-11T10:35:37.129Z,20.98
2017-07-11T10:38:04.640Z,22.13
2017-07-11T10:40:32.871Z,22.42
2017-07-11T10:43:00.375Z,24.73
2017-07-11T10:45:28.626Z,23.25
2017-07-11T10:47:56.146Z,23.27
2017-07-11T10:50:23.628Z,24.50
2017-07-11T10:52:51.071Z,27.85
2017-07-11T10:55:18.511Z,33.00
2017-07-11T10:57:45.970Z,37.83
2017-07-11T11:00:13.467Z,35.93
2017-07-11T11:02:40.927Z,39.10
2017-07-11T11:05:08.543Z,38.95
2017-07-11T11:07:36.031Z,39.40
2017-07-11T11:10:03.791Z,42.78
2017-07-11T11:12:31.252Z,38.15
2017-07-11T11:14:58.833Z,39.35
2017-07-11T11:17:27.070Z,36.83
2017-07-11T11:19:54.536Z,33.30
2017-07-11T11:22:21.970Z,32.28
2017-07-11T11:24:49.467Z,24.08
2017-07-11T11:27:17.022Z,26.10
2017-07-11T11:29:44.484Z,24.00
2017-07-11T11:32:11.979Z,24.90
2017-07-11T11:34:39.439Z,22.60
2017-07-11T11:37:07.011Z,21.90
2017-07-11T11:39:34.433Z,23.83
2017-07-11T11:42:02.742Z,23.92
2017-07-11T11:44:30.199Z,23.25
2017-07-11T11:46:57.656Z,23.93
2017-07-11T11:49:25.099Z,29.33
2017-07-11T11:51:52.566Z,35.27
2017-07-11T11:54:20.051Z,32.85
2017-07-11T11:56:47.540Z,33.42
2017-07-11T11:59:15.858Z,35.25
2017-07-11T12:01:43.383Z,36.87
2017-07-11T12:04:11.622Z,34.38
2017-07-11T12:06:39.087Z,32.13
2017-07-11T12:09:06.645Z,31.62
2017-07-11T12:11:34.108Z,31.40
2017-07-11T12:14:01.544Z,30.15
2017-07-11T12:16:29.035Z,31.03
2017-07-11T12:18:57.291Z,29.60
2017-07-11T12:21:24.830Z,27.08
2017-07-11T12:23:52.287Z,26.12
2017-07-11T12:26:19.833Z,26.15
2017-07-11T12:28:47.322Z,24.10
2017-07-11T12:31:14.859Z,26.30
2017-07-11T12:33:42.332Z,25.15
2017-07-11T12:36:09.768Z,24.50
2017-07-11T12:38:37.229Z,23.10
2017-07-11T12:41:04.731Z,22.92
2017-07-11T12:43:32.988Z,22.98
2017-07-11T12:46:00.518Z,22.90
2017-07-11T12:48:27.971Z,22.75
2017-07-11T12:50:55.419Z,22.35
2017-07-11T12:53:22.891Z,22.07
2017-07-11T12:55:50.448Z,21.95
2017-07-11T12:58:17.934Z,23.20
2017-07-11T13:00:46.216Z,24.00
2017-07-11T13:03:14.471Z,24.40
2017-07-11T13:05:42.097Z,23.63
2017-07-11T13:08:09.563Z,21.83
2017-07-11T13:10:37.040Z,18.70
2017-07-11T13:13:04.596Z,10.50
2017-07-11T13:15:32.054Z,8.55
2017-07-11T13:17:59.577Z,8.45
2017-07-11T13:20:27.064Z,8.35
2017-07-11T13:22:54.580Z,9.20
2017-07-11T13:25:22.047Z,9.70
2017-07-11T13:27:49.481Z,9.90
2017-07-11T13:30:16.959Z,10.75
2017-07-11T13:32:44.411Z,11.32
2017-07-11T13:35:11.935Z,11.65
2017-07-11T13:37:39.399Z,12.40
2017-07-11T13:40:07.609Z,12.37
2017-07-11T13:42:35.051Z,13.57
2017-07-11T13:45:02.549Z,12.32
2017-07-11T13:47:29.993Z,13.82
2017-07-11T13:49:57.459Z,13.38
2017-07-11T13:52:24.987Z,12.90
2017-07-11T13:54:52.435Z,11.95
2017-07-11T13:57:19.935Z,12.37
2017-07-11T13:59:47.475Z,12.27
2017-07-11T14:02:14.943Z,12.52
2017-07-11T14:04:42.402Z,12.73
2017-07-11T14:07:09.867Z,13.70
2017-07-11T14:09:37.299Z,13.20
2017-07-11T14:12:04.813Z,11.55
2017-07-11T14:14:33.046Z,13.30
2017-07-11T14:17:00.499Z,13.82
2017-07-11T14:19:27.941Z,13.68
2017-07-11T14:21:55.485Z,13.50
2017-07-11T14:24:22.983Z,12.50
2017-07-11T14:26:50.426Z,12.50
2017-07-11T14:29:17.859Z,11.88
2017-07-11T14:31:45.308Z,11.82
2017-07-11T14:34:12.800Z,12.30
2017-07-11T14:36:40.239Z,12.25
2017-07-11T14:39:07.674Z,11.38
2017-07-11T14:41:35.340Z,11.35
2017-07-11T14:44:02.774Z,10.40
2017-07-11T14:46:30.306Z,10.40
2017-07-11T14:48:57.855Z,10.85
2017-07-11T14:51:25.381Z,11.37
2017-07-11T14:53:52.947Z,10.23
2017-07-11T14:56:20.399Z,10.00
2017-07-11T14:58:47.836Z,10.63
2017-07-11T15:01:15.352Z,9.50
2017-07-11T15:03:42.839Z,8.93
2017-07-11T15:06:10.279Z,8.50
2017-07-11T15:08:38.528Z,8.68
2017-07-11T15:11:05.982Z,9.20
2017-07-11T15:13:33.410Z,9.55
2017-07-11T15:16:00.896Z,9.52
2017-07-11T15:18:28.452Z,8.25
2017-07-11T15:20:56.062Z,9.00
2017-07-11T15:23:23.502Z,8.27
2017-07-11T15:25:51.737Z,7.85
2017-07-11T15:28:19.164Z,9.80
2017-07-11T15:30:46.632Z,9.77
2017-07-11T15:33:14.193Z,8.73
2017-07-11T15:35:41.634Z,9.43
2017-07-11T15:38:09.133Z,9.80
2017-07-11T15:40:36.668Z,10.02
2017-07-11T15:43:04.127Z,9.57
2017-07-11T15:45:31.577Z,9.52
2017-07-11T15:47:59.048Z,9.23
2017-07-11T15:50:26.505Z,10.52
2017-07-11T15:52:54.088Z,10.85
2017-07-11T15:55:21.594Z,11.20
2017-07-11T15:57:49.206Z,10.88
2017-07-11T16:00:17.443Z,10.70
2017-07-11T16:02:44.892Z,11.13
2017-07-11T16:05:12.358Z,10.55
2017-07-11T16:07:39.806Z,10.05
2017-07-11T16:10:07.271Z,9.88
2017-07-11T16:12:34.740Z,9.20
2017-07-11T16:15:03.011Z,7.90
2017-07-11T16:17:30.487Z,9.60
2017-07-11T16:19:58.015Z,8.50
2017-07-11T16:22:25.467Z,8.20
2017-07-11T16:24:52.957Z,9.32
2017-07-11T16:27:21.202Z,8.60
2017-07-11T16:29:48.684Z,8.60
2017-07-11T16:32:16.102Z,8.85
2017-07-11T16:34:43.594Z,8.00
2017-07-11T16:37:11.091Z,8.35
2017-07-11T16:39:38.591Z,8.17
2017-07-11T16:42:06.048Z,7.82
2017-07-11T16:44:33.586Z,7.90
2017-07-11T16:47:01.051Z,4.65
2017-07-11T16:49:28.534Z,3.37
2017-07-11T16:51:56.031Z,4.95
2017-07-11T16:54:23.961Z,5.65
2017-07-11T16:56:51.585Z,7.37
2017-07-11T16:59:19.088Z,7.47
2017-07-11T17:01:47.308Z,11.20
2017-07-11T17:04:14.804Z,12.00
2017-07-11T17:06:42.243Z,11.43
2017-07-11T17:09:09.731Z,12.10
2017-07-11T17:11:37.208Z,13.95
2017-07-11T17:14:04.666Z,15.10
2017-07-11T17:16:32.207Z,16.17
2017-07-11T17:18:59.680Z,19.67
2017-07-11T17:21:27.337Z,16.60
2017-07-11T17:23:54.798Z,16.92
2017-07-11T17:26:22.363Z,15.52
2017-07-11T17:28:49.896Z,15.30
2017-07-11T17:31:17.351Z,16.02
2017-07-11T17:33:44.832Z,15.60
2017-07-11T17:36:12.268Z,15.95
2017-07-11T17:38:39.757Z,14.73
2017-07-11T17:41:07.992Z,15.67
2017-07-11T17:43:35.463Z,13.55
2017-07-11T17:46:02.985Z,11.50
2017-07-11T17:48:30.463Z,12.75
2017-07-11T17:50:58.024Z,13.07
2017-07-11T17:53:25.477Z,12.33
2017-07-11T17:55:52.973Z,12.52
2017-07-11T17:58:20.423Z,12.85
2017-07-11T18:00:48.643Z,13.20
2017-07-11T18:03:16.083Z,14.43
2017-07-11T18:05:43.544Z,15.10
2017-07-11T18:08:11.020Z,12.93
2017-07-11T18:10:38.451Z,12.87
2017-07-11T18:13:05.987Z,14.20
2017-07-11T18:15:34.228Z,15.50
2017-07-11T18:18:01.669Z,17.10
2017-07-11T18:20:29.149Z,13.82
2017-07-11T18:22:56.691Z,12.18
2017-07-11T18:25:24.171Z,12.10
2017-07-11T18:27:51.687Z,12.33
2017-07-11T18:30:19.115Z,11.00
2017-07-11T18:32:46.563Z,12.13
2017-07-11T18:35:14.079Z,11.07
2017-07-11T18:37:41.537Z,12.07
2017-07-11T18:40:09.157Z,11.73
2017-07-11T18:42:36.683Z,11.48
2017-07-11T18:45:04.118Z,10.52
2017-07-11T18:47:31.691Z,10.35
2017-07-11T18:49:59.163Z,12.65
2017-07-11T18:52:27.372Z,11.98
2017-07-11T18:54:54.935Z,10.90
2017-07-11T18:57:22.362Z,10.90
2017-07-11T18:59:50.614Z,10.70
2017-07-11T19:02:18.809Z,10.68
2017-07-11T19:04:46.380Z,9.50
2017-07-11T19:07:13.841Z,8.50
2017-07-11T19:09:41.286Z,9.30
2017-07-11T19:12:08.779Z,9.55
2017-07-11T19:14:36.231Z,8.10
2017-07-11T19:17:03.674Z,6.50
2017-07-11T19:19:31.139Z,7.20
2017-07-11T19:21:58.624Z,6.60
2017-07-11T19:24:26.059Z,7.55
2017-07-11T19:26:53.487Z,6.30
2017-07-11T19:29:20.944Z,5.77
2017-07-11T19:31:48.433Z,8.30
2017-07-11T19:34:15.999Z,6.20
2017-07-11T19:36:43.540Z,6.90
2017-07-11T19:39:11.074Z,7.00
2017-07-11T19:41:38.656Z,5.55
2017-07-11T19:44:06.114Z,6.30
2017-07-11T19:46:33.570Z,5.28
2017-07-11T19:49:01.047Z,5.60
2017-07-11T19:51:28.481Z,5.50
2017-07-11T19:53:55.916Z,5.68
2017-07-11T19:56:23.419Z,5.70
2017-07-11T19:58:50.847Z,6.23
2017-07-11T20:01:18.463Z,5.70
2017-07-11T20:03:45.957Z,9.90
2017-07-11T20:06:13.415Z,5.40
2017-07-11T20:08:40.887Z,6.00
2017-07-11T20:11:08.343Z,7.45
2017-07-11T20:13:35.795Z,6.40
2017-07-11T20:16:03.347Z,6.72
2017-07-11T20:18:30.819Z,6.10
2017-07-11T20:20:58.284Z,6.28
2017-07-11T20:23:25.739Z,6.70
2017-07-11T20:25:53.315Z,6.43
2017-07-11T20:28:21.509Z,5.75
2017-07-11T20:30:49.039Z,9.85
2017-07-11T20:33:16.485Z,7.43
2017-07-11T20:35:44.006Z,7.57
2017-07-11T20:38:11.510Z,7.03
2017-07-11T20:40:39.221Z,6.45
2017-07-11T20:43:06.724Z,6.57
2017-07-11T20:45:34.163Z,7.32
2017-07-11T20:48:01.617Z,9.63
2017-07-11T20:50:29.053Z,8.60
2017-07-11T20:52:56.548Z,10.15
2017-07-11T20:55:24.169Z,8.77
2017-07-11T20:57:51.612Z,10.13
2017-07-11T21:00:19.185Z,9.38
2017-07-11T21:02:46.620Z,11.25
2017-07-11T21:05:14.134Z,10.68
2017-07-11T21:07:41.618Z,12.10
2017-07-11T21:10:09.955Z,12.10
2017-07-11T21:12:37.397Z,11.02
2017-07-11T21:15:05.633Z,11.90
2017-07-11T21:17:33.134Z,12.75
2017-07-11T21:20:01.343Z,12.23
2017-07-11T21:22:28.830Z,11.73
2017-07-11T21:24:56.307Z,10.82
2017-07-11T21:27:24.604Z,11.40
2017-07-11T21:29:52.103Z,10.93
2017-07-11T21:32:19.593Z,10.80
2017-07-11T21:34:47.019Z,11.25
2017-07-11T21:37:14.486Z,9.38
2017-07-11T21:39:41.922Z,10.43
2017-07-11T21:42:09.422Z,11.97
2017-07-11T21:44:37.051Z,11.05
2017-07-11T21:47:04.521Z,10.00
2017-07-11T21:49:31.963Z,11.02
2017-07-11T21:51:59.425Z,10.48
2017-07-11T21:54:26.971Z,10.90
2017-07-11T21:56:54.544Z,11.00
2017-07-11T21:59:22.091Z,10.60
2017-07-11T22:01:49.622Z,11.32
2017-07-11T22:04:17.100Z,11.35
2017-07-11T22:06:44.538Z,11.20
2017-07-11T22:09:12.038Z,9.80
2017-07-11T22:11:39.491Z,9.40
2017-07-11T22:14:06.955Z,10.82
2017-07-11T22:16:35.167Z,9.65
2017-07-11T22:19:02.670Z,10.52
2017-07-11T22:21:30.140Z,11.10
2017-07-11T22:23:57.599Z,11.63
2017-07-11T22:26:25.823Z,11.63
2017-07-11T22:28:53.444Z,11.20
2017-07-11T22:31:21.699Z,12.50
2017-07-11T22:33:49.149Z,13.30
2017-07-11T22:36:16.707Z,13.43
2017-07-11T22:38:44.212Z,12.90
2017-07-11T22:41:11.675Z,14.13
2017-07-11T22:43:39.119Z,13.93
2017-07-11T22:46:06.630Z,15.07
2017-07-11T22:48:34.093Z,15.43
2017-07-11T22:51:01.569Z,15.50
2017-07-11T22:53:29.121Z,16.48
2017-07-11T22:55:56.575Z,17.20
2017-07-11T22:58:24.187Z,16.80
2017-07-11T23:00:51.645Z,16.85
2017-07-11T23:03:19.099Z,16.73
2017-07-11T23:05:46.556Z,15.90
2017-07-11T23:08:14.060Z,16.23
2017-07-11T23:10:41.699Z,16.58
2017-07-11T23:13:09.231Z,15.77
2017-07-11T23:15:36.667Z,17.17
2017-07-11T23:18:04.134Z,19.10
2017-07-11T23:20:31.591Z,17.42
2017-07-11T23:22:59.075Z,16.75
2017-07-11T23:25:26.552Z,16.58
2017-07-11T23:27:54.008Z,16.83
2017-07-11T23:30:21.489Z,16.15
2017-07-11T23:32:49.722Z,18.25
2017-07-11T23:35:17.198Z,16.20
2017-07-11T23:37:44.647Z,17.90
2017-07-11T23:40:12.200Z,18.02
2017-07-11T23:42:39.648Z,18.95
2017-07-11T23:45:07.699Z,17.42
2017-07-11T23:47:36.895Z,16.60
2017-07-11T23:50:04.712Z,15.80
2017-07-11T23:52:33.346Z,15.25
2017-07-11T23:55:00.969Z,13.57
2017-07-11T23:57:29.204Z,15.52
2017-07-11T23:59:56.675Z,15.38
